sensor_id;sensor_type;location;lat;lon;timestamp;temperature;humidity
42615;DHT22;28754;47.700;7.924;2023-04-01T00:02:42;5.20;99.90
42615;DHT22;28754;47.700;7.924;2023-04-01T00:05:29;5.20;99.90
42615;DHT22;28754;47.700;7.924;2023-04-01T00:08:16;5.40;99.90
42615;DHT22;28754;47.700;7.924;2023-04-01T00:11:03;5.40;99.90
42615;DHT22;28754;47.700;7.924;2023-04-01T00:13:50;5.50;99.90
42615;DHT22;28754;47.700;7.924;2023-04-01T00:16:36;5.60;99.90
42615;DHT22;28754;47.700;7.924;2023-04-01T00:19:24;5.60;99.90
42615;DHT22;28754;47.700;7.924;2023-04-01T00:22:11;5.60;99.90
42615;DHT22;28754;47.700;7.924;2023-04-01T00:24:58;5.70;99.90
42615;DHT22;28754;47.700;7.924;2023-04-01T00:27:44;5.70;99.90
42615;DHT22;28754;47.700;7.924;2023-04-01T00:30:31;5.70;99.90
42615;DHT22;28754;47.700;7.924;2023-04-01T00:33:17;5.80;99.90
42615;DHT22;28754;47.700;7.924;2023-04-01T00:38:56;5.90;99.90
42615;DHT22;28754;47.700;7.924;2023-04-01T00:41:45;6.00;99.90
42615;DHT22;28754;47.700;7.924;2023-04-01T00:44:33;6.00;99.90
42615;DHT22;28754;47.700;7.924;2023-04-01T00:47:23;6.00;99.90
42615;DHT22;28754;47.700;7.924;2023-04-01T00:50:22;5.80;99.90
42615;DHT22;28754;47.700;7.924;2023-04-01T00:53:16;5.90;99.90
42615;DHT22;28754;47.700;7.924;2023-04-01T00:56:17;5.90;99.90
42615;DHT22;28754;47.700;7.924;2023-04-01T00:59:34;5.90;99.90
42615;DHT22;28754;47.700;7.924;2023-04-01T01:02:25;6.00;99.90
42615;DHT22;28754;47.700;7.924;2023-04-01T01:05:12;5.90;99.90
42615;DHT22;28754;47.700;7.924;2023-04-01T01:08:18;6.00;99.90
42615;DHT22;28754;47.700;7.924;2023-04-01T01:16:27;5.90;99.90
42615;DHT22;28754;47.700;7.924;2023-04-01T01:28:44;5.90;99.90
42615;DHT22;28754;47.700;7.924;2023-04-01T01:31:50;5.80;99.90
42615;DHT22;28754;47.700;7.924;2023-04-01T01:34:55;5.90;99.90
42615;DHT22;28754;47.700;7.924;2023-04-01T01:38:06;5.90;99.90
42615;DHT22;28754;47.700;7.924;2023-04-01T01:40:59;6.00;99.90
42615;DHT22;28754;47.700;7.924;2023-04-01T01:43:49;6.10;99.90
42615;DHT22;28754;47.700;7.924;2023-04-01T01:46:40;6.10;99.90
42615;DHT22;28754;47.700;7.924;2023-04-01T01:50:34;5.90;99.90
42615;DHT22;28754;47.700;7.924;2023-04-01T01:53:24;5.90;99.90
42615;DHT22;28754;47.700;7.924;2023-04-01T02:09:21;6.00;99.90
42615;DHT22;28754;47.700;7.924;2023-04-01T02:12:32;6.00;99.90
42615;DHT22;28754;47.700;7.924;2023-04-01T02:20:49;6.00;99.90
42615;DHT22;28754;47.700;7.924;2023-04-01T02:23:37;6.00;99.90
42615;DHT22;28754;47.700;7.924;2023-04-01T02:26:25;6.00;99.90
42615;DHT22;28754;47.700;7.924;2023-04-01T02:29:13;5.90;99.90
42615;DHT22;28754;47.700;7.924;2023-04-01T02:32:00;5.90;99.90
42615;DHT22;28754;47.700;7.924;2023-04-01T02:34:47;5.90;99.90
42615;DHT22;28754;47.700;7.924;2023-04-01T02:37:38;5.90;99.90
42615;DHT22;28754;47.700;7.924;2023-04-01T02:40:28;5.90;99.90
42615;DHT22;28754;47.700;7.924;2023-04-01T02:43:15;5.80;99.90
42615;DHT22;28754;47.700;7.924;2023-04-01T02:46:02;5.90;99.90
42615;DHT22;28754;47.700;7.924;2023-04-01T02:48:50;6.00;99.90
42615;DHT22;28754;47.700;7.924;2023-04-01T02:51:37;6.00;99.90
42615;DHT22;28754;47.700;7.924;2023-04-01T02:54:35;6.00;99.90
42615;DHT22;28754;47.700;7.924;2023-04-01T02:57:25;6.00;99.90
42615;DHT22;28754;47.700;7.924;2023-04-01T03:00:19;6.00;99.90
42615;DHT22;28754;47.700;7.924;2023-04-01T03:03:09;6.00;99.90
42615;DHT22;28754;47.700;7.924;2023-04-01T03:06:09;6.10;99.90
42615;DHT22;28754;47.700;7.924;2023-04-01T03:09:02;6.00;99.90
42615;DHT22;28754;47.700;7.924;2023-04-01T03:11:54;6.00;99.90
42615;DHT22;28754;47.700;7.924;2023-04-01T03:14:55;6.00;99.90
42615;DHT22;28754;47.700;7.924;2023-04-01T03:18:31;5.90;99.90
42615;DHT22;28754;47.700;7.924;2023-04-01T03:21:46;5.70;99.90
42615;DHT22;28754;47.700;7.924;2023-04-01T03:24:33;5.70;99.90
42615;DHT22;28754;47.700;7.924;2023-04-01T03:27:20;5.60;99.90
42615;DHT22;28754;47.700;7.924;2023-04-01T03:30:07;5.60;99.90
42615;DHT22;28754;47.700;7.924;2023-04-01T03:33:00;5.60;99.90
42615;DHT22;28754;47.700;7.924;2023-04-01T03:35:46;5.70;99.90
42615;DHT22;28754;47.700;7.924;2023-04-01T03:38:39;5.60;99.90
42615;DHT22;28754;47.700;7.924;2023-04-01T03:41:27;5.40;99.90
42615;DHT22;28754;47.700;7.924;2023-04-01T03:44:14;5.50;99.90
42615;DHT22;28754;47.700;7.924;2023-04-01T03:47:01;5.50;99.90
42615;DHT22;28754;47.700;7.924;2023-04-01T03:49:48;5.50;99.90
42615;DHT22;28754;47.700;7.924;2023-04-01T03:52:35;5.50;99.90
42615;DHT22;28754;47.700;7.924;2023-04-01T03:55:22;5.40;99.90
42615;DHT22;28754;47.700;7.924;2023-04-01T03:58:10;5.20;99.90
42615;DHT22;28754;47.700;7.924;2023-04-01T04:00:57;5.30;99.90
42615;DHT22;28754;47.700;7.924;2023-04-01T04:03:54;5.50;99.90
42615;DHT22;28754;47.700;7.924;2023-04-01T04:06:42;5.30;99.90
42615;DHT22;28754;47.700;7.924;2023-04-01T04:09:32;5.40;99.90
42615;DHT22;28754;47.700;7.924;2023-04-01T04:12:19;5.40;99.90
42615;DHT22;28754;47.700;7.924;2023-04-01T04:15:06;5.50;99.90
42615;DHT22;28754;47.700;7.924;2023-04-01T04:17:54;5.30;99.90
42615;DHT22;28754;47.700;7.924;2023-04-01T04:20:45;5.20;99.90
42615;DHT22;28754;47.700;7.924;2023-04-01T04:23:37;5.40;99.90
42615;DHT22;28754;47.700;7.924;2023-04-01T04:26:23;5.30;99.90
42615;DHT22;28754;47.700;7.924;2023-04-01T04:29:16;5.40;99.90
42615;DHT22;28754;47.700;7.924;2023-04-01T04:32:03;5.40;99.90
42615;DHT22;28754;47.700;7.924;2023-04-01T04:34:53;5.40;99.90
42615;DHT22;28754;47.700;7.924;2023-04-01T04:37:52;5.40;99.90
42615;DHT22;28754;47.700;7.924;2023-04-01T04:40:43;5.40;99.90
42615;DHT22;28754;47.700;7.924;2023-04-01T04:43:42;5.50;99.90
42615;DHT22;28754;47.700;7.924;2023-04-01T04:46:34;5.40;99.90
42615;DHT22;28754;47.700;7.924;2023-04-01T04:49:32;5.40;99.90
42615;DHT22;28754;47.700;7.924;2023-04-01T04:52:24;5.40;99.90
42615;DHT22;28754;47.700;7.924;2023-04-01T04:55:11;5.30;99.90
42615;DHT22;28754;47.700;7.924;2023-04-01T04:57:58;5.40;99.90
42615;DHT22;28754;47.700;7.924;2023-04-01T05:00:45;5.20;99.90
42615;DHT22;28754;47.700;7.924;2023-04-01T05:03:39;5.20;99.90
42615;DHT22;28754;47.700;7.924;2023-04-01T05:06:26;5.30;99.90
42615;DHT22;28754;47.700;7.924;2023-04-01T05:09:15;5.30;99.90
42615;DHT22;28754;47.700;7.924;2023-04-01T05:12:02;5.30;99.90
42615;DHT22;28754;47.700;7.924;2023-04-01T05:15:05;5.20;99.90
42615;DHT22;28754;47.700;7.924;2023-04-01T05:18:00;5.30;99.90
42615;DHT22;28754;47.700;7.924;2023-04-01T05:20:48;5.30;99.90
42615;DHT22;28754;47.700;7.924;2023-04-01T05:23:49;5.40;99.90
42615;DHT22;28754;47.700;7.924;2023-04-01T05:27:41;5.40;99.90
42615;DHT22;28754;47.700;7.924;2023-04-01T05:34:20;5.40;99.90
42615;DHT22;28754;47.700;7.924;2023-04-01T05:37:21;5.50;99.90
42615;DHT22;28754;47.700;7.924;2023-04-01T05:41:27;5.50;99.90
42615;DHT22;28754;47.700;7.924;2023-04-01T05:44:25;5.50;99.90
42615;DHT22;28754;47.700;7.924;2023-04-01T05:51:16;5.60;99.90
42615;DHT22;28754;47.700;7.924;2023-04-01T05:54:09;5.50;99.90
42615;DHT22;28754;47.700;7.924;2023-04-01T05:57:05;5.50;99.90
42615;DHT22;28754;47.700;7.924;2023-04-01T06:00:07;5.50;99.90
42615;DHT22;28754;47.700;7.924;2023-04-01T06:03:10;5.50;99.90
42615;DHT22;28754;47.700;7.924;2023-04-01T06:06:26;5.50;99.90
42615;DHT22;28754;47.700;7.924;2023-04-01T06:09:37;5.60;99.90
42615;DHT22;28754;47.700;7.924;2023-04-01T06:12:56;5.50;99.90
42615;DHT22;28754;47.700;7.924;2023-04-01T06:16:15;5.60;99.90
42615;DHT22;28754;47.700;7.924;2023-04-01T06:29:16;5.70;99.90
42615;DHT22;28754;47.700;7.924;2023-04-01T06:32:27;5.70;99.90
42615;DHT22;28754;47.700;7.924;2023-04-01T06:35:32;5.70;99.90
42615;DHT22;28754;47.700;7.924;2023-04-01T06:38:42;5.70;99.90
42615;DHT22;28754;47.700;7.924;2023-04-01T06:56:42;5.60;99.90
42615;DHT22;28754;47.700;7.924;2023-04-01T07:00:27;5.50;99.90
42615;DHT22;28754;47.700;7.924;2023-04-01T07:04:20;5.60;99.90
42615;DHT22;28754;47.700;7.924;2023-04-01T07:07:55;5.70;99.90
42615;DHT22;28754;47.700;7.924;2023-04-01T07:15:22;5.60;99.90
42615;DHT22;28754;47.700;7.924;2023-04-01T07:18:34;5.50;99.90
42615;DHT22;28754;47.700;7.924;2023-04-01T07:21:34;5.60;99.90
42615;DHT22;28754;47.700;7.924;2023-04-01T07:28:50;5.60;99.90
42615;DHT22;28754;47.700;7.924;2023-04-01T07:41:15;5.80;99.90
42615;DHT22;28754;47.700;7.924;2023-04-01T07:44:17;5.70;99.90
42615;DHT22;28754;47.700;7.924;2023-04-01T07:50:48;5.80;99.90
42615;DHT22;28754;47.700;7.924;2023-04-01T07:53:46;5.80;99.90
42615;DHT22;28754;47.700;7.924;2023-04-01T08:16:24;6.00;99.90
42615;DHT22;28754;47.700;7.924;2023-04-01T08:19:37;5.70;99.90
42615;DHT22;28754;47.700;7.924;2023-04-01T08:22:50;5.70;99.90
42615;DHT22;28754;47.700;7.924;2023-04-01T08:25:50;5.80;99.90
42615;DHT22;28754;47.700;7.924;2023-04-01T08:31:45;5.70;99.90
42615;DHT22;28754;47.700;7.924;2023-04-01T08:35:07;5.60;99.90
42615;DHT22;28754;47.700;7.924;2023-04-01T08:38:14;5.70;99.90
42615;DHT22;28754;47.700;7.924;2023-04-01T08:48:23;5.70;99.90
42615;DHT22;28754;47.700;7.924;2023-04-01T08:51:29;5.80;99.90
42615;DHT22;28754;47.700;7.924;2023-04-01T08:54:54;5.90;99.90
42615;DHT22;28754;47.700;7.924;2023-04-01T09:08:50;5.60;99.90
42615;DHT22;28754;47.700;7.924;2023-04-01T09:24:35;5.90;99.90
42615;DHT22;28754;47.700;7.924;2023-04-01T09:28:14;5.90;99.90
42615;DHT22;28754;47.700;7.924;2023-04-01T09:31:01;5.90;99.90
42615;DHT22;28754;47.700;7.924;2023-04-01T09:37:21;6.00;99.90
42615;DHT22;28754;47.700;7.924;2023-04-01T09:40:37;6.00;99.90
42615;DHT22;28754;47.700;7.924;2023-04-01T09:44:01;6.00;99.90
42615;DHT22;28754;47.700;7.924;2023-04-01T09:54:01;6.10;99.90
42615;DHT22;28754;47.700;7.924;2023-04-01T09:57:06;6.10;99.90
42615;DHT22;28754;47.700;7.924;2023-04-01T10:00:50;6.20;99.90
42615;DHT22;28754;47.700;7.924;2023-04-01T12:45:28;6.90;99.90
42615;DHT22;28754;47.700;7.924;2023-04-01T13:30:35;7.80;99.90
42615;DHT22;28754;47.700;7.924;2023-04-01T14:00:32;8.00;99.90
42615;DHT22;28754;47.700;7.924;2023-04-01T14:40:14;7.50;99.90
42615;DHT22;28754;47.700;7.924;2023-04-01T14:49:52;7.20;99.90
42615;DHT22;28754;47.700;7.924;2023-04-01T14:55:54;7.40;99.90
42615;DHT22;28754;47.700;7.924;2023-04-01T15:03:35;7.00;99.90
42615;DHT22;28754;47.700;7.924;2023-04-01T15:07:01;7.30;99.90
42615;DHT22;28754;47.700;7.924;2023-04-01T15:16:46;8.40;99.90
42615;DHT22;28754;47.700;7.924;2023-04-01T15:26:11;8.60;99.90
42615;DHT22;28754;47.700;7.924;2023-04-01T15:29:07;8.60;99.90
42615;DHT22;28754;47.700;7.924;2023-04-01T15:32:32;8.60;99.90
42615;DHT22;28754;47.700;7.924;2023-04-01T15:52:43;8.60;99.90
42615;DHT22;28754;47.700;7.924;2023-04-01T16:02:44;8.40;99.90
42615;DHT22;28754;47.700;7.924;2023-04-01T16:06:10;8.20;99.90
42615;DHT22;28754;47.700;7.924;2023-04-01T16:15:55;7.90;99.90
42615;DHT22;28754;47.700;7.924;2023-04-01T17:20:14;7.40;99.90
42615;DHT22;28754;47.700;7.924;2023-04-01T17:31:46;7.10;99.90
42615;DHT22;28754;47.700;7.924;2023-04-01T17:35:26;7.10;99.90
42615;DHT22;28754;47.700;7.924;2023-04-01T17:48:24;7.30;99.90
42615;DHT22;28754;47.700;7.924;2023-04-01T17:51:52;7.20;99.90
42615;DHT22;28754;47.700;7.924;2023-04-01T18:08:26;7.20;99.90
42615;DHT22;28754;47.700;7.924;2023-04-01T18:24:32;7.00;99.90
42615;DHT22;28754;47.700;7.924;2023-04-01T18:28:11;6.80;99.90
42615;DHT22;28754;47.700;7.924;2023-04-01T18:31:49;6.70;99.90
42615;DHT22;28754;47.700;7.924;2023-04-01T18:47:22;6.90;99.90
42615;DHT22;28754;47.700;7.924;2023-04-01T18:51:00;6.80;99.90
42615;DHT22;28754;47.700;7.924;2023-04-01T18:54:27;6.80;99.90
42615;DHT22;28754;47.700;7.924;2023-04-01T19:01:28;6.70;99.90
42615;DHT22;28754;47.700;7.924;2023-04-01T19:04:39;6.80;99.90
42615;DHT22;28754;47.700;7.924;2023-04-01T19:07:48;6.80;99.90
42615;DHT22;28754;47.700;7.924;2023-04-01T19:21:44;6.30;99.90
42615;DHT22;28754;47.700;7.924;2023-04-01T19:24:53;6.40;99.90
42615;DHT22;28754;47.700;7.924;2023-04-01T19:28:20;6.40;99.90
42615;DHT22;28754;47.700;7.924;2023-04-01T20:02:26;6.10;99.90
42615;DHT22;28754;47.700;7.924;2023-04-01T20:05:33;6.00;99.90
42615;DHT22;28754;47.700;7.924;2023-04-01T20:15:54;5.80;99.90
42615;DHT22;28754;47.700;7.924;2023-04-01T20:18:58;5.90;99.90
42615;DHT22;28754;47.700;7.924;2023-04-01T20:21:47;6.00;99.90
42615;DHT22;28754;47.700;7.924;2023-04-01T20:24:45;6.00;99.90
42615;DHT22;28754;47.700;7.924;2023-04-01T20:28:26;6.00;99.90
42615;DHT22;28754;47.700;7.924;2023-04-01T20:31:17;6.00;99.90
42615;DHT22;28754;47.700;7.924;2023-04-01T22:01:49;5.80;99.90
42615;DHT22;28754;47.700;7.924;2023-04-01T22:11:52;5.80;99.90
42615;DHT22;28754;47.700;7.924;2023-04-01T22:15:18;5.90;99.90
42615;DHT22;28754;47.700;7.924;2023-04-01T22:18:33;5.80;99.90
42615;DHT22;28754;47.700;7.924;2023-04-01T22:21:31;5.60;99.90
42615;DHT22;28754;47.700;7.924;2023-04-01T22:28:09;5.70;99.90
42615;DHT22;28754;47.700;7.924;2023-04-01T22:31:02;5.70;99.90
42615;DHT22;28754;47.700;7.924;2023-04-01T22:37:27;5.60;99.90
42615;DHT22;28754;47.700;7.924;2023-04-01T22:40:32;5.60;99.90
42615;DHT22;28754;47.700;7.924;2023-04-01T22:43:37;5.70;99.90
42615;DHT22;28754;47.700;7.924;2023-04-01T22:49:42;5.70;99.90
42615;DHT22;28754;47.700;7.924;2023-04-01T22:52:42;5.70;99.90
42615;DHT22;28754;47.700;7.924;2023-04-01T22:55:34;5.70;99.90
42615;DHT22;28754;47.700;7.924;2023-04-01T22:58:30;5.70;99.90
42615;DHT22;28754;47.700;7.924;2023-04-01T23:01:24;5.80;99.90
42615;DHT22;28754;47.700;7.924;2023-04-01T23:04:17;5.60;99.90
42615;DHT22;28754;47.700;7.924;2023-04-01T23:10:56;5.70;99.90
42615;DHT22;28754;47.700;7.924;2023-04-01T23:24:10;5.60;99.90
42615;DHT22;28754;47.700;7.924;2023-04-01T23:33:28;5.50;99.90
42615;DHT22;28754;47.700;7.924;2023-04-01T23:36:16;5.40;99.90
42615;DHT22;28754;47.700;7.924;2023-04-01T23:39:06;5.50;99.90
42615;DHT22;28754;47.700;7.924;2023-04-01T23:42:24;5.40;99.90
42615;DHT22;28754;47.700;7.924;2023-04-01T23:45:16;5.40;99.90
42615;DHT22;28754;47.700;7.924;2023-04-01T23:48:12;5.40;99.90
42615;DHT22;28754;47.700;7.924;2023-04-01T23:51:02;5.50;99.90
42615;DHT22;28754;47.700;7.924;2023-04-01T23:54:01;5.40;99.90
42615;DHT22;28754;47.700;7.924;2023-04-01T23:56:55;5.30;99.90
42615;DHT22;28754;47.700;7.924;2023-04-01T23:59:43;5.30;99.90
